Time;durP1;ratioP1;P1;durP2;ratioP2;P2;SDS_P1;SDS_P2;PMS_P1;PMS_P2;Temp;Humidity;BMP_temperature;BMP_pressure;BME280_temperature;BME280_humidity;BME280_pressure;Samples;Min_cycle;Max_cycle;Signal;HPM_P1;HPM_P2
2021/05/26 00:01:41;;;;;;;5.13;1.98;;;;;;;;;;5053607;28;20478;-76
2021/05/26 00:04:08;;;;;;;5.63;1.90;;;;;;;;;;5053319;28;20032;-76
2021/05/26 00:06:33;;;;;;;2.72;2.05;;;;;;;;;;5053461;28;20044;-75
2021/05/26 00:08:58;;;;;;;3.10;2.00;;;;;;;;;;5053373;28;20387;-76
2021/05/26 00:11:24;;;;;;;8.52;2.17;;;;;;;;;;5053095;28;20025;-75
2021/05/26 00:13:50;;;;;;;4.38;2.05;;;;;;;;;;5052119;28;20037;-75
2021/05/26 00:16:17;;;;;;;3.05;2.00;;;;;;;;;;5053542;28;20037;-76
2021/05/26 00:18:42;;;;;;;8.05;2.13;;;;;;;;;;5052291;28;20068;-76
2021/05/26 00:21:09;;;;;;;3.10;1.90;;;;;;;;;;5053315;28;20069;-76
2021/05/26 00:23:38;;;;;;;3.78;2.30;;;;;;;;;;5052165;28;20541;-76
2021/05/26 00:26:04;;;;;;;6.53;2.20;;;;;;;;;;5053397;28;20091;-76
2021/05/26 00:28:30;;;;;;;5.38;2.50;;;;;;;;;;5053027;28;20498;-75
2021/05/26 00:30:58;;;;;;;8.15;2.28;;;;;;;;;;5053247;28;20032;-76
2021/05/26 00:33:23;;;;;;;6.93;2.38;;;;;;;;;;5053193;28;20035;-76
2021/05/26 00:35:49;;;;;;;6.80;2.30;;;;;;;;;;5052347;28;20386;-75
2021/05/26 00:38:16;;;;;;;4.20;2.00;;;;;;;;;;5052013;28;20045;-75
2021/05/26 00:40:42;;;;;;;3.60;2.10;;;;;;;;;;5052402;28;20032;-75
2021/05/26 00:43:08;;;;;;;7.55;2.25;;;;;;;;;;5052573;28;20041;-75
2021/05/26 00:45:34;;;;;;;4.22;2.25;;;;;;;;;;5035081;28;20035;-75
2021/05/26 00:47:59;;;;;;;4.70;2.35;;;;;;;;;;5052664;28;20387;-76
2021/05/26 00:50:27;;;;;;;9.88;3.20;;;;;;;;;;5053127;28;20037;-76
2021/05/26 00:52:57;;;;;;;6.03;2.22;;;;;;;;;;5035094;28;20052;-76
2021/05/26 00:55:22;;;;;;;4.18;2.78;;;;;;;;;;5052015;28;20120;-75
2021/05/26 00:57:49;;;;;;;6.88;2.55;;;;;;;;;;5052356;28;20160;-76
2021/05/26 01:00:21;;;;;;;4.15;2.65;;;;;;;;;;5051521;28;20075;-76
2021/05/26 01:02:52;;;;;;;5.45;2.75;;;;;;;;;;5051573;28;20029;-76
2021/05/26 01:05:21;;;;;;;5.03;2.35;;;;;;;;;;5050861;28;20029;-76
2021/05/26 01:07:46;;;;;;;4.80;2.60;;;;;;;;;;5051188;28;20102;-76
2021/05/26 01:10:15;;;;;;;4.28;2.63;;;;;;;;;;5051034;28;20466;-76
2021/05/26 01:13:00;;;;;;;3.90;2.33;;;;;;;;;;5051178;28;20029;-76
2021/05/26 01:15:26;;;;;;;9.27;2.83;;;;;;;;;;5052954;28;20029;-75
2021/05/26 01:17:52;;;;;;;4.05;2.10;;;;;;;;;;5051452;28;20028;-76
2021/05/26 01:20:27;;;;;;;8.30;2.22;;;;;;;;;;5052614;28;20048;-75
2021/05/26 01:22:53;;;;;;;9.23;2.70;;;;;;;;;;5052089;28;20037;-75
2021/05/26 01:25:19;;;;;;;4.25;2.30;;;;;;;;;;5051338;28;20033;-76
2021/05/26 01:27:46;;;;;;;7.40;2.78;;;;;;;;;;5051532;28;20612;-76
2021/05/26 01:30:13;;;;;;;7.78;2.42;;;;;;;;;;5051478;28;20033;-76
2021/05/26 01:32:41;;;;;;;6.43;2.72;;;;;;;;;;5051744;28;20087;-75
2021/05/26 01:35:08;;;;;;;5.70;2.35;;;;;;;;;;5051267;28;20037;-75
2021/05/26 01:37:37;;;;;;;9.77;3.25;;;;;;;;;;5051329;28;20037;-75
2021/05/26 01:40:03;;;;;;;5.13;2.67;;;;;;;;;;5051169;28;20029;-75
2021/05/26 01:42:33;;;;;;;8.18;2.80;;;;;;;;;;5034414;28;20470;-75
2021/05/26 01:44:59;;;;;;;8.73;2.53;;;;;;;;;;5052219;28;20118;-76
2021/05/26 01:47:29;;;;;;;9.32;2.53;;;;;;;;;;5050171;28;20029;-75
2021/05/26 01:49:56;;;;;;;11.07;2.25;;;;;;;;;;5054469;28;20043;-76
2021/05/26 01:52:21;;;;;;;5.10;2.20;;;;;;;;;;5055877;28;20025;-76
2021/05/26 01:54:47;;;;;;;6.65;2.10;;;;;;;;;;5037856;28;20496;-75
2021/05/26 01:57:13;;;;;;;5.95;2.65;;;;;;;;;;5056117;28;20033;-76
2021/05/26 01:59:40;;;;;;;5.38;1.98;;;;;;;;;;5054490;28;20040;-75
2021/05/26 02:02:08;;;;;;;8.90;2.67;;;;;;;;;;5055470;28;20156;-76
2021/05/26 02:04:35;;;;;;;5.38;2.20;;;;;;;;;;5054649;28;20029;-76
2021/05/26 02:07:07;;;;;;;10.93;2.47;;;;;;;;;;5055930;28;20032;-76
2021/05/26 02:09:34;;;;;;;6.72;2.53;;;;;;;;;;5054500;28;20037;-76
2021/05/26 02:14:44;;;;;;;4.43;2.03;;;;;;;;;;5054044;28;20033;-76
2021/05/26 02:17:10;;;;;;;5.88;2.00;;;;;;;;;;5054457;28;20098;-76
2021/05/26 02:19:38;;;;;;;4.80;2.10;;;;;;;;;;5038158;28;20056;-76
2021/05/26 02:22:04;;;;;;;4.90;2.00;;;;;;;;;;5054085;28;20064;-76
2021/05/26 02:24:31;;;;;;;5.22;2.05;;;;;;;;;;5055716;28;20457;-76
2021/05/26 02:26:57;;;;;;;6.18;2.28;;;;;;;;;;5054310;28;20124;-75
2021/05/26 02:29:23;;;;;;;6.38;2.10;;;;;;;;;;5053920;28;20111;-75
2021/05/26 02:31:48;;;;;;;5.80;2.80;;;;;;;;;;5054481;28;20037;-77
2021/05/26 02:34:14;;;;;;;8.05;2.50;;;;;;;;;;5054170;28;20095;-75
2021/05/26 02:36:41;;;;;;;7.40;2.38;;;;;;;;;;5054039;28;20486;-76
2021/05/26 02:39:07;;;;;;;11.30;3.00;;;;;;;;;;5055080;28;20033;-76
2021/05/26 02:41:33;;;;;;;4.15;2.35;;;;;;;;;;5053781;28;20503;-76
2021/05/26 02:43:59;;;;;;;7.40;2.75;;;;;;;;;;5054755;28;20119;-75
2021/05/26 02:46:25;;;;;;;6.90;2.72;;;;;;;;;;5052764;28;20091;-76
2021/05/26 02:48:51;;;;;;;7.00;2.55;;;;;;;;;;5053596;28;20033;-75
2021/05/26 02:51:17;;;;;;;3.67;2.20;;;;;;;;;;5055159;28;20116;-76
2021/05/26 02:53:43;;;;;;;7.03;2.50;;;;;;;;;;5053976;28;20041;-75
2021/05/26 02:56:10;;;;;;;5.43;3.08;;;;;;;;;;5053734;28;20029;-76
2021/05/26 02:58:36;;;;;;;12.40;2.90;;;;;;;;;;5052439;28;20039;-75
2021/05/26 03:01:20;;;;;;;9.10;2.58;;;;;;;;;;5054591;28;20444;-75
2021/05/26 03:04:08;;;;;;;6.35;2.45;;;;;;;;;;5054461;28;20041;-75
2021/05/26 03:06:39;;;;;;;8.70;2.85;;;;;;;;;;5054622;28;20040;-75
2021/05/26 03:09:10;;;;;;;12.57;2.60;;;;;;;;;;5052365;28;20032;-76
2021/05/26 03:11:47;;;;;;;14.23;3.45;;;;;;;;;;5053623;28;20077;-76
2021/05/26 03:14:33;;;;;;;6.25;2.60;;;;;;;;;;5053436;28;20029;-76
2021/05/26 03:17:06;;;;;;;3.70;2.40;;;;;;;;;;5054441;28;20029;-76
2021/05/26 03:19:32;;;;;;;6.70;2.47;;;;;;;;;;5053502;28;20025;-76
2021/05/26 03:22:14;;;;;;;9.32;2.50;;;;;;;;;;5052279;28;20033;-76
2021/05/26 03:25:10;;;;;;;10.95;2.90;;;;;;;;;;5049154;28;20132;-76
2021/05/26 03:27:37;;;;;;;5.43;2.40;;;;;;;;;;5053132;28;20408;-76
2021/05/26 03:30:09;;;;;;;2.63;1.80;;;;;;;;;;5054335;28;20037;-76
2021/05/26 03:32:36;;;;;;;5.10;2.55;;;;;;;;;;5053540;28;20371;-76
2021/05/26 03:35:03;;;;;;;6.68;2.50;;;;;;;;;;5053036;28;20606;-76
2021/05/26 03:37:30;;;;;;;12.57;2.72;;;;;;;;;;5052874;28;20033;-76
2021/05/26 03:39:56;;;;;;;7.82;2.65;;;;;;;;;;5053752;28;20043;-76
2021/05/26 03:42:21;;;;;;;6.78;2.45;;;;;;;;;;5053932;28;20037;-76
2021/05/26 03:44:47;;;;;;;5.85;2.05;;;;;;;;;;5052750;28;20044;-76
2021/05/26 03:47:13;;;;;;;5.32;2.28;;;;;;;;;;5052637;28;20074;-76
2021/05/26 03:49:39;;;;;;;8.85;2.65;;;;;;;;;;5052496;28;20036;-76
2021/05/26 03:52:07;;;;;;;4.05;2.00;;;;;;;;;;5052786;28;20075;-76
2021/05/26 03:54:34;;;;;;;3.83;2.10;;;;;;;;;;5052765;28;20063;-76
2021/05/26 03:57:02;;;;;;;7.30;1.90;;;;;;;;;;5054021;28;20032;-76
2021/05/26 03:59:30;;;;;;;2.53;1.50;;;;;;;;;;5055360;28;20049;-75
2021/05/26 04:01:56;;;;;;;10.95;2.42;;;;;;;;;;5053797;28;20055;-76
2021/05/26 04:04:21;;;;;;;6.07;2.10;;;;;;;;;;5052258;28;20466;-76
2021/05/26 04:06:49;;;;;;;2.53;1.65;;;;;;;;;;5053840;28;20058;-76
2021/05/26 04:09:20;;;;;;;5.63;2.22;;;;;;;;;;5053646;28;20538;-76
2021/05/26 04:11:46;;;;;;;7.20;1.92;;;;;;;;;;5051947;28;20029;-76
2021/05/26 04:14:30;;;;;;;4.00;2.28;;;;;;;;;;5053951;28;20051;-76
2021/05/26 04:17:22;;;;;;;5.65;1.75;;;;;;;;;;5053115;28;20116;-76
2021/05/26 04:20:19;;;;;;;9.00;2.22;;;;;;;;;;5053152;28;20067;-76
2021/05/26 04:22:45;;;;;;;3.92;2.35;;;;;;;;;;5051302;28;20134;-76
2021/05/26 04:25:12;;;;;;;6.93;2.78;;;;;;;;;;5053799;28;20040;-76
2021/05/26 04:27:38;;;;;;;7.78;2.10;;;;;;;;;;5035642;28;20032;-76
2021/05/26 04:30:04;;;;;;;5.03;1.60;;;;;;;;;;5051870;28;20033;-76
2021/05/26 04:32:35;;;;;;;7.10;1.98;;;;;;;;;;5052227;28;20112;-76
2021/05/26 04:35:01;;;;;;;11.68;2.15;;;;;;;;;;5052244;28;20132;-76
2021/05/26 04:37:27;;;;;;;3.92;1.85;;;;;;;;;;5053264;28;20550;-76
2021/05/26 04:39:52;;;;;;;6.28;2.05;;;;;;;;;;5053183;28;20488;-76
2021/05/26 04:42:17;;;;;;;4.07;1.55;;;;;;;;;;5052879;28;20044;-77
2021/05/26 04:44:43;;;;;;;5.32;1.73;;;;;;;;;;5053099;28;20398;-77
2021/05/26 04:47:08;;;;;;;3.97;1.50;;;;;;;;;;5056645;28;20394;-77
2021/05/26 04:49:34;;;;;;;4.40;1.80;;;;;;;;;;5073294;28;20174;-77
2021/05/26 04:51:59;;;;;;;4.13;1.70;;;;;;;;;;5072868;28;20541;-77
2021/05/26 04:54:25;;;;;;;6.97;2.35;;;;;;;;;;5071083;28;20463;-77
2021/05/26 04:56:50;;;;;;;7.15;1.88;;;;;;;;;;5072399;28;20115;-77
2021/05/26 04:59:15;;;;;;;1.83;1.42;;;;;;;;;;5072823;28;20028;-77
2021/05/26 05:01:41;;;;;;;1.98;1.40;;;;;;;;;;5073044;28;20068;-77
2021/05/26 05:04:06;;;;;;;4.80;1.73;;;;;;;;;;5059614;28;20043;-77
2021/05/26 05:06:32;;;;;;;5.40;1.80;;;;;;;;;;5052803;28;20033;-77
2021/05/26 05:08:58;;;;;;;3.53;1.38;;;;;;;;;;5052388;28;20443;-76
2021/05/26 05:11:23;;;;;;;3.95;1.52;;;;;;;;;;5052830;28;20033;-76
2021/05/26 05:13:50;;;;;;;5.95;1.80;;;;;;;;;;5052362;28;20033;-77
2021/05/26 05:16:16;;;;;;;4.38;1.98;;;;;;;;;;5053258;28;20414;-77
2021/05/26 05:18:41;;;;;;;5.28;1.77;;;;;;;;;;5053121;28;20040;-76
2021/05/26 05:21:07;;;;;;;4.88;1.70;;;;;;;;;;5053176;28;20033;-76
2021/05/26 05:23:34;;;;;;;4.88;1.67;;;;;;;;;;5052652;28;20045;-77
2021/05/26 05:26:00;;;;;;;3.65;1.50;;;;;;;;;;5056378;28;20083;-77
2021/05/26 05:28:25;;;;;;;1.77;1.20;;;;;;;;;;5056571;28;20036;-77
2021/05/26 05:30:51;;;;;;;2.22;1.20;;;;;;;;;;5056627;28;20048;-76
2021/05/26 05:33:16;;;;;;;5.70;1.55;;;;;;;;;;5054601;28;20029;-77
2021/05/26 05:35:41;;;;;;;4.63;1.50;;;;;;;;;;5056701;28;20037;-76
2021/05/26 05:38:07;;;;;;;2.20;1.13;;;;;;;;;;5056354;28;20037;-77
2021/05/26 05:40:32;;;;;;;5.57;1.30;;;;;;;;;;5055826;28;20036;-76
2021/05/26 05:42:58;;;;;;;4.65;1.70;;;;;;;;;;5055965;28;20102;-77
2021/05/26 05:45:23;;;;;;;3.90;1.60;;;;;;;;;;5056858;28;20135;-76
2021/05/26 05:47:48;;;;;;;3.97;1.25;;;;;;;;;;5056508;28;20388;-77
2021/05/26 05:50:15;;;;;;;2.95;1.83;;;;;;;;;;5056806;28;20044;-76
2021/05/26 05:52:45;;;;;;;3.53;1.40;;;;;;;;;;5056102;28;20037;-77
2021/05/26 05:55:11;;;;;;;3.10;1.42;;;;;;;;;;5055372;28;20037;-77
2021/05/26 05:57:38;;;;;;;4.53;1.50;;;;;;;;;;5054409;28;20063;-77
2021/05/26 06:00:05;;;;;;;8.55;2.35;;;;;;;;;;5056235;28;20037;-75
2021/05/26 06:02:39;;;;;;;4.20;1.90;;;;;;;;;;5055646;28;20091;-74
2021/05/26 06:05:05;;;;;;;2.92;1.63;;;;;;;;;;5055994;28;20033;-75
2021/05/26 06:07:31;;;;;;;9.73;2.95;;;;;;;;;;5056178;28;20033;-75
2021/05/26 06:09:57;;;;;;;4.72;2.25;;;;;;;;;;5056104;28;20422;-77
2021/05/26 06:12:23;;;;;;;11.20;3.72;;;;;;;;;;5055773;28;20033;-75
2021/05/26 06:14:48;;;;;;;5.63;2.42;;;;;;;;;;5054969;28;20044;-74
2021/05/26 06:17:13;;;;;;;4.75;1.98;;;;;;;;;;5055212;28;20382;-74
2021/05/26 06:19:39;;;;;;;15.85;2.25;;;;;;;;;;5055902;28;20029;-74
2021/05/26 06:22:04;;;;;;;4.82;2.08;;;;;;;;;;5055567;28;20475;-75
2021/05/26 06:24:31;;;;;;;11.07;2.97;;;;;;;;;;5055479;28;20032;-75
2021/05/26 06:26:56;;;;;;;4.65;1.70;;;;;;;;;;5055368;28;20040;-76
2021/05/26 06:29:21;;;;;;;5.75;1.67;;;;;;;;;;5055731;28;20119;-75
2021/05/26 06:31:47;;;;;;;8.98;1.67;;;;;;;;;;5054960;28;20043;-75
2021/05/26 06:34:12;;;;;;;3.75;1.27;;;;;;;;;;5055505;28;20033;-75
2021/05/26 06:36:38;;;;;;;5.15;1.40;;;;;;;;;;5053698;28;20554;-75
2021/05/26 06:39:04;;;;;;;4.25;1.60;;;;;;;;;;5055231;28;20064;-75
2021/05/26 06:41:30;;;;;;;3.25;1.35;;;;;;;;;;5053867;28;20053;-76
2021/05/26 06:43:56;;;;;;;8.20;1.40;;;;;;;;;;5055106;28;20430;-76
2021/05/26 06:46:21;;;;;;;4.05;1.60;;;;;;;;;;5054348;28;20032;-75
2021/05/26 06:48:46;;;;;;;4.95;1.40;;;;;;;;;;5055232;28;20452;-75
2021/05/26 06:51:12;;;;;;;7.05;1.48;;;;;;;;;;5055382;28;20124;-75
2021/05/26 06:53:39;;;;;;;3.53;1.40;;;;;;;;;;5053844;28;20108;-75
2021/05/26 06:56:04;;;;;;;2.42;1.40;;;;;;;;;;5055351;28;20033;-75
2021/05/26 06:58:30;;;;;;;4.43;1.55;;;;;;;;;;5054790;28;20032;-75
2021/05/26 07:00:55;;;;;;;4.20;1.30;;;;;;;;;;5054803;28;20131;-76
2021/05/26 07:03:21;;;;;;;4.65;1.38;;;;;;;;;;5055216;28;20110;-75
2021/05/26 07:05:47;;;;;;;2.40;1.38;;;;;;;;;;5055583;28;20049;-75
2021/05/26 07:08:12;;;;;;;4.95;1.50;;;;;;;;;;5052064;28;20037;-75
2021/05/26 07:10:39;;;;;;;6.47;1.58;;;;;;;;;;5054843;28;20152;-75
2021/05/26 07:13:05;;;;;;;5.50;2.13;;;;;;;;;;5053729;28;20036;-75
2021/05/26 07:15:31;;;;;;;4.00;1.55;;;;;;;;;;5055069;28;20037;-75
2021/05/26 07:18:02;;;;;;;5.28;1.77;;;;;;;;;;5054827;28;20036;-75
2021/05/26 07:20:27;;;;;;;4.93;1.40;;;;;;;;;;5054180;28;20121;-75
2021/05/26 07:22:53;;;;;;;2.38;1.10;;;;;;;;;;5054572;28;20131;-75
2021/05/26 07:25:18;;;;;;;4.78;1.38;;;;;;;;;;5055307;28;20080;-76
2021/05/26 07:27:44;;;;;;;2.88;1.10;;;;;;;;;;5054584;28;20024;-76
2021/05/26 07:30:10;;;;;;;3.28;1.33;;;;;;;;;;5055900;28;20041;-76
2021/05/26 07:32:35;;;;;;;3.33;1.15;;;;;;;;;;5054418;28;20116;-76
2021/05/26 07:35:00;;;;;;;4.13;1.50;;;;;;;;;;5054835;28;20120;-76
2021/05/26 07:37:26;;;;;;;3.90;1.17;;;;;;;;;;5053964;28;20048;-76
2021/05/26 07:39:51;;;;;;;3.85;1.23;;;;;;;;;;5053864;28;20029;-75
2021/05/26 07:42:17;;;;;;;2.55;0.82;;;;;;;;;;5054358;28;20037;-75
2021/05/26 07:44:43;;;;;;;2.53;1.33;;;;;;;;;;5054517;28;20029;-75
2021/05/26 07:47:08;;;;;;;4.55;1.38;;;;;;;;;;5053563;28;20037;-76
2021/05/26 07:49:33;;;;;;;2.95;1.17;;;;;;;;;;5053862;28;20040;-74
2021/05/26 07:52:04;;;;;;;1.20;0.93;;;;;;;;;;5053888;28;20481;-76
2021/05/26 07:54:29;;;;;;;3.42;1.27;;;;;;;;;;5053480;28;20039;-76
2021/05/26 07:56:56;;;;;;;5.03;1.27;;;;;;;;;;5052042;28;20041;-76
2021/05/26 07:59:22;;;;;;;2.28;1.25;;;;;;;;;;5051597;28;20029;-76
2021/05/26 08:01:48;;;;;;;5.00;1.17;;;;;;;;;;5052965;28;20048;-76
2021/05/26 08:04:13;;;;;;;2.17;1.70;;;;;;;;;;5053147;28;20039;-77
2021/05/26 08:06:38;;;;;;;3.70;1.27;;;;;;;;;;5052422;28;20070;-76
2021/05/26 08:09:04;;;;;;;1.92;0.90;;;;;;;;;;5053444;28;20045;-76
2021/05/26 08:11:30;;;;;;;2.88;1.05;;;;;;;;;;5053604;28;20099;-77
2021/05/26 08:13:57;;;;;;;1.65;0.80;;;;;;;;;;5053550;28;20060;-77
2021/05/26 08:16:23;;;;;;;5.43;1.30;;;;;;;;;;5053748;28;20051;-77
2021/05/26 08:18:49;;;;;;;3.78;1.05;;;;;;;;;;5053461;28;20076;-76
2021/05/26 08:21:15;;;;;;;3.13;1.30;;;;;;;;;;5053456;28;20072;-76
2021/05/26 08:23:41;;;;;;;3.42;1.27;;;;;;;;;;5053355;28;20049;-74
2021/05/26 08:26:11;;;;;;;2.17;0.98;;;;;;;;;;5053077;28;20045;-75
2021/05/26 08:28:37;;;;;;;3.83;1.20;;;;;;;;;;5053658;28;20044;-73
2021/05/26 08:31:02;;;;;;;4.25;1.65;;;;;;;;;;5053028;28;20045;-74
2021/05/26 08:33:28;;;;;;;4.05;1.35;;;;;;;;;;5052993;28;20023;-74
2021/05/26 08:35:53;;;;;;;2.38;1.27;;;;;;;;;;5053232;28;20052;-74
2021/05/26 08:38:18;;;;;;;1.45;0.80;;;;;;;;;;5053202;28;20055;-73
2021/05/26 08:40:43;;;;;;;3.75;1.13;;;;;;;;;;5051182;28;20052;-74
2021/05/26 08:43:09;;;;;;;4.57;1.40;;;;;;;;;;5053041;28;20390;-74
2021/05/26 08:45:34;;;;;;;3.33;1.40;;;;;;;;;;5052884;28;20049;-74
2021/05/26 08:48:04;;;;;;;5.22;0.90;;;;;;;;;;5055089;28;20128;-74
2021/05/26 08:50:30;;;;;;;4.55;1.17;;;;;;;;;;5053940;28;20064;-75
2021/05/26 08:52:55;;;;;;;1.30;0.98;;;;;;;;;;5061259;28;20078;-77
2021/05/26 08:55:20;;;;;;;1.10;0.70;;;;;;;;;;5072967;28;20064;-76
2021/05/26 08:57:46;;;;;;;2.55;1.00;;;;;;;;;;5073332;28;20040;-76
2021/05/26 09:00:12;;;;;;;3.58;1.08;;;;;;;;;;5076788;28;20032;-75
2021/05/26 09:02:38;;;;;;;2.50;1.10;;;;;;;;;;5076664;28;20375;-76
2021/05/26 09:05:05;;;;;;;2.83;1.30;;;;;;;;;;5060336;28;20048;-77
2021/05/26 09:07:33;;;;;;;1.27;0.68;;;;;;;;;;5057059;28;20459;-76
2021/05/26 09:10:01;;;;;;;1.10;0.85;;;;;;;;;;5056157;28;20051;-76
2021/05/26 09:12:37;;;;;;;2.67;0.80;;;;;;;;;;5056180;28;20074;-76
2021/05/26 09:15:09;;;;;;;2.90;1.13;;;;;;;;;;5056802;28;20514;-76
2021/05/26 09:17:35;;;;;;;3.40;0.85;;;;;;;;;;5058588;28;20536;-76
2021/05/26 09:20:23;;;;;;;4.53;1.15;;;;;;;;;;5057187;28;20151;-78
2021/05/26 09:23:10;;;;;;;1.05;0.65;;;;;;;;;;5057168;28;20045;-78
2021/05/26 09:25:42;;;;;;;3.63;1.90;;;;;;;;;;5056812;28;20110;-75
2021/05/26 09:28:22;;;;;;;8.45;3.30;;;;;;;;;;5054792;28;20051;-76
2021/05/26 09:31:09;;;;;;;1.98;1.40;;;;;;;;;;5057234;28;20045;-75
2021/05/26 09:33:34;;;;;;;;;;;;;;;;;;5056815;28;20470;-76
2021/05/26 09:36:10;;;;;;;1.83;1.00;;;;;;;;;;5057453;28;20054;-76
2021/05/26 09:38:46;;;;;;;2.70;0.80;;;;;;;;;;5055678;28;20071;-76
2021/05/26 09:41:16;;;;;;;3.45;1.13;;;;;;;;;;5040165;28;20411;-79
2021/05/26 09:43:44;;;;;;;1.83;0.63;;;;;;;;;;5038423;28;20129;-79
2021/05/26 09:46:30;;;;;;;0.98;0.55;;;;;;;;;;5039367;28;20053;-78
2021/05/26 09:49:09;;;;;;;3.05;1.10;;;;;;;;;;5035733;28;20061;-78
2021/05/26 09:51:38;;;;;;;3.03;1.23;;;;;;;;;;5037835;28;20487;-76
2021/05/26 09:54:13;;;;;;;3.53;0.80;;;;;;;;;;5037475;28;20046;-76
2021/05/26 09:56:40;;;;;;;3.25;0.60;;;;;;;;;;5043000;28;20608;-77
2021/05/26 09:59:06;;;;;;;1.40;0.70;;;;;;;;;;5076489;28;20052;-78
2021/05/26 10:01:33;;;;;;;4.60;0.85;;;;;;;;;;5076443;28;20105;-77
2021/05/26 10:03:59;;;;;;;2.25;0.88;;;;;;;;;;5075882;28;20032;-77
2021/05/26 10:06:27;;;;;;;1.17;0.82;;;;;;;;;;5076373;28;20047;-76
2021/05/26 10:09:12;;;;;;;2.97;1.25;;;;;;;;;;5075104;28;20048;-76
2021/05/26 10:12:00;;;;;;;2.65;1.25;;;;;;;;;;5074610;28;20087;-75
2021/05/26 10:14:27;;;;;;;3.22;1.98;;;;;;;;;;5055872;28;20475;-77
2021/05/26 10:16:54;;;;;;;6.50;3.50;;;;;;;;;;5057332;28;20072;-76
2021/05/26 10:19:19;;;;;;;4.07;2.00;;;;;;;;;;5055149;28;20036;-77
2021/05/26 10:21:49;;;;;;;0.80;0.68;;;;;;;;;;5060820;28;20040;-80
2021/05/26 10:24:19;;;;;;;2.20;0.82;;;;;;;;;;5067172;28;20033;-80
2021/05/26 10:26:48;;;;;;;1.33;0.70;;;;;;;;;;5067965;28;20063;-80
2021/05/26 10:29:25;;;;;;;1.15;0.80;;;;;;;;;;5068710;28;20037;-79
2021/05/26 10:31:50;;;;;;;0.75;0.50;;;;;;;;;;5068591;28;20055;-79
2021/05/26 10:34:16;;;;;;;1.55;0.80;;;;;;;;;;5069666;28;20036;-79
2021/05/26 10:36:52;;;;;;;3.13;1.45;;;;;;;;;;5069184;28;20057;-79
2021/05/26 10:39:31;;;;;;;1.38;1.17;;;;;;;;;;5069228;28;20067;-79
2021/05/26 10:41:57;;;;;;;0.75;0.70;;;;;;;;;;5068514;28;20060;-79
2021/05/26 10:44:58;;;;;;;1.38;0.60;;;;;;;;;;5070447;28;20036;-80
2021/05/26 10:47:36;;;;;;;0.10;0.10;;;;;;;;;;5070857;28;20105;-79
2021/05/26 10:50:14;;;;;;;0.43;0.30;;;;;;;;;;5067641;28;20033;-79
2021/05/26 10:52:58;;;;;;;0.32;0.32;;;;;;;;;;5069782;28;20029;-79
2021/05/26 10:55:37;;;;;;;0.90;0.40;;;;;;;;;;5069304;28;20036;-79
2021/05/26 10:58:15;;;;;;;0.77;0.47;;;;;;;;;;5069707;28;20070;-79
2021/05/26 11:00:56;;;;;;;1.45;0.40;;;;;;;;;;5064750;28;20459;-76
2021/05/26 11:03:34;;;;;;;0.68;0.30;;;;;;;;;;5057541;28;20033;-80
2021/05/26 11:06:10;;;;;;;2.63;0.38;;;;;;;;;;5056035;28;20036;-75
2021/05/26 11:08:48;;;;;;;4.57;0.55;;;;;;;;;;5056976;28;20028;-75
2021/05/26 11:11:26;;;;;;;0.32;0.30;;;;;;;;;;5056491;28;20036;-76
2021/05/26 11:14:03;;;;;;;0.35;0.30;;;;;;;;;;5057031;28;20037;-76
2021/05/26 11:16:44;;;;;;;0.30;0.30;;;;;;;;;;5054986;28;20486;-80
2021/05/26 11:19:16;;;;;;;0.95;0.40;;;;;;;;;;5054522;28;20051;-78
2021/05/26 11:21:56;;;;;;;0.50;0.20;;;;;;;;;;5055234;28;20040;-77
2021/05/26 11:24:23;;;;;;;32.92;19.67;;;;;;;;;;5054962;28;20094;-79
2021/05/26 11:26:49;;;;;;;1.20;0.95;;;;;;;;;;5053944;28;20044;-78
2021/05/26 11:29:32;;;;;;;0.88;0.47;;;;;;;;;;5055392;28;20181;-78
2021/05/26 11:32:10;;;;;;;0.50;0.30;;;;;;;;;;5055209;28;20040;-78
2021/05/26 11:34:36;;;;;;;1.02;0.50;;;;;;;;;;5054642;28;20124;-78
2021/05/26 11:37:03;;;;;;;0.75;0.40;;;;;;;;;;5054881;28;20025;-78
2021/05/26 11:39:30;;;;;;;0.68;0.30;;;;;;;;;;5055205;28;20044;-78
2021/05/26 11:42:22;;;;;;;1.10;0.40;;;;;;;;;;5054398;28;20047;-78
2021/05/26 11:44:55;;;;;;;0.77;0.52;;;;;;;;;;5054666;28;20090;-78
2021/05/26 11:47:31;;;;;;;0.17;0.17;;;;;;;;;;5052682;28;20037;-78
2021/05/26 11:49:58;;;;;;;0.55;0.20;;;;;;;;;;5054630;28;20033;-78
2021/05/26 11:52:24;;;;;;;0.28;0.22;;;;;;;;;;5054538;28;20031;-78
2021/05/26 11:54:57;;;;;;;0.30;0.20;;;;;;;;;;5054295;28;20107;-78
2021/05/26 11:57:54;;;;;;;0.95;0.20;;;;;;;;;;5054317;28;20387;-77
2021/05/26 12:00:28;;;;;;;0.30;0.30;;;;;;;;;;5049533;28;20158;-78
2021/05/26 12:02:59;;;;;;;0.73;0.13;;;;;;;;;;5054131;28;20029;-78
2021/05/26 12:05:43;;;;;;;1.65;0.35;;;;;;;;;;5053723;28;20045;-78
2021/05/26 12:08:13;;;;;;;0.55;0.20;;;;;;;;;;5052984;28;20044;-78
2021/05/26 12:10:38;;;;;;;0.20;0.20;;;;;;;;;;5053832;28;20052;-78
2021/05/26 12:13:04;;;;;;;0.40;0.40;;;;;;;;;;5052906;28;20033;-78
2021/05/26 12:15:29;;;;;;;4.10;0.35;;;;;;;;;;5053842;28;20028;-77
2021/05/26 12:17:55;;;;;;;0.82;0.55;;;;;;;;;;5054076;28;20060;-77
2021/05/26 12:20:21;;;;;;;0.60;0.32;;;;;;;;;;5054263;28;20087;-78
2021/05/26 12:22:49;;;;;;;0.45;0.40;;;;;;;;;;5052949;28;20116;-78
2021/05/26 12:25:15;;;;;;;0.28;0.08;;;;;;;;;;5053700;28;20055;-77
2021/05/26 12:27:50;;;;;;;0.28;0.15;;;;;;;;;;5053798;28;20037;-78
2021/05/26 12:30:24;;;;;;;;;;;;;;;;;;5052845;28;20033;-78
2021/05/26 12:32:52;;;;;;;1.30;0.70;;;;;;;;;;5052305;28;19952;-77
2021/05/26 12:35:21;;;;;;;2.30;0.30;;;;;;;;;;5052100;28;20111;-77
2021/05/26 12:37:54;;;;;;;0.28;0.28;;;;;;;;;;5052064;28;20070;-77
2021/05/26 12:40:25;;;;;;;0.38;0.32;;;;;;;;;;5053475;28;20117;-77
2021/05/26 12:42:52;;;;;;;0.30;0.30;;;;;;;;;;5032773;28;20050;-78
2021/05/26 12:45:29;;;;;;;1.30;0.57;;;;;;;;;;5033325;28;20053;-78
2021/05/26 12:47:55;;;;;;;;;;;;;;;;;;5034397;28;20494;-83
2021/05/26 12:50:25;;;;;;;1.23;0.40;;;;;;;;;;5034045;28;19917;-77
2021/05/26 12:52:55;;;;;;;3.00;0.50;;;;;;;;;;5033140;28;20036;-77
2021/05/26 12:55:24;;;;;;;0.88;0.40;;;;;;;;;;5033286;28;20460;-77
2021/05/26 12:57:59;;;;;;;0.70;0.47;;;;;;;;;;5033016;28;20061;-77
2021/05/26 13:00:25;;;;;;;0.97;0.37;;;;;;;;;;5033194;28;20038;-77
2021/05/26 13:03:03;;;;;;;1.30;0.45;;;;;;;;;;5032675;28;20374;-77
2021/05/26 13:05:31;;;;;;;0.73;0.32;;;;;;;;;;5051560;28;20086;-77
2021/05/26 13:08:11;;;;;;;1.60;0.50;;;;;;;;;;5052727;28;20063;-77
2021/05/26 13:11:00;;;;;;;0.82;0.25;;;;;;;;;;5051746;28;20045;-77
2021/05/26 13:13:30;;;;;;;0.35;0.30;;;;;;;;;;5050502;28;20086;-77
2021/05/26 13:15:57;;;;;;;0.45;0.40;;;;;;;;;;5051498;28;20041;-76
2021/05/26 13:18:25;;;;;;;0.60;0.30;;;;;;;;;;5052958;28;20369;-77
2021/05/26 13:20:52;;;;;;;0.77;0.40;;;;;;;;;;5051349;28;20037;-76
2021/05/26 13:23:18;;;;;;;0.70;0.52;;;;;;;;;;5051231;28;20032;-77
2021/05/26 13:25:52;;;;;;;1.17;0.40;;;;;;;;;;5050658;28;20509;-76
2021/05/26 13:28:18;;;;;;;1.48;0.50;;;;;;;;;;5041890;28;20056;-77
2021/05/26 13:30:47;;;;;;;1.20;0.40;;;;;;;;;;5051648;28;20492;-77
2021/05/26 13:33:13;;;;;;;1.35;0.73;;;;;;;;;;5053341;28;20032;-76
2021/05/26 13:35:39;;;;;;;4.95;0.40;;;;;;;;;;5052870;28;20052;-77
2021/05/26 13:38:07;;;;;;;1.00;0.43;;;;;;;;;;5051069;28;20032;-77
2021/05/26 13:40:34;;;;;;;0.77;0.25;;;;;;;;;;5051484;28;20037;-77
2021/05/26 13:43:01;;;;;;;0.95;0.40;;;;;;;;;;5052430;28;20041;-77
2021/05/26 13:45:27;;;;;;;1.50;0.30;;;;;;;;;;5052622;28;20029;-78
2021/05/26 13:47:53;;;;;;;0.38;0.35;;;;;;;;;;5056443;28;20395;-77
2021/05/26 13:50:20;;;;;;;0.35;0.35;;;;;;;;;;5056613;28;20037;-78
2021/05/26 13:52:48;;;;;;;0.77;0.65;;;;;;;;;;5056926;28;20036;-78
2021/05/26 13:55:15;;;;;;;0.70;0.38;;;;;;;;;;5057392;28;20044;-78
2021/05/26 13:57:41;;;;;;;2.05;0.40;;;;;;;;;;5057228;28;20025;-78
2021/05/26 14:00:09;;;;;;;0.57;0.30;;;;;;;;;;5057502;28;20037;-77
2021/05/26 14:02:38;;;;;;;1.00;0.50;;;;;;;;;;5053314;28;20033;-77
2021/05/26 14:05:05;;;;;;;2.28;0.57;;;;;;;;;;5035361;28;20064;-77
2021/05/26 14:07:31;;;;;;;0.60;0.60;;;;;;;;;;5045235;28;20439;-77
2021/05/26 14:09:56;;;;;;;0.60;0.45;;;;;;;;;;5047687;28;20067;-77
2021/05/26 14:12:22;;;;;;;1.83;0.40;;;;;;;;;;5046185;28;20364;-77
2021/05/26 14:14:48;;;;;;;3.17;0.95;;;;;;;;;;5047294;28;20068;-77
2021/05/26 14:17:13;;;;;;;0.47;0.43;;;;;;;;;;5045635;28;20080;-77
2021/05/26 14:19:39;;;;;;;0.60;0.60;;;;;;;;;;5046785;28;20037;-77
2021/05/26 14:22:07;;;;;;;0.50;0.50;;;;;;;;;;5049746;28;20044;-77
2021/05/26 14:24:32;;;;;;;1.10;0.70;;;;;;;;;;5053384;28;20044;-78
2021/05/26 14:26:58;;;;;;;0.88;0.55;;;;;;;;;;5045337;28;20475;-78
2021/05/26 14:29:23;;;;;;;0.70;0.50;;;;;;;;;;5047239;28;20379;-78
2021/05/26 14:31:49;;;;;;;1.38;0.70;;;;;;;;;;5056113;28;20383;-78
2021/05/26 14:34:14;;;;;;;0.50;0.50;;;;;;;;;;5055215;28;20033;-77
2021/05/26 14:36:41;;;;;;;0.75;0.73;;;;;;;;;;5054655;28;20114;-78
2021/05/26 14:39:13;;;;;;;0.40;0.40;;;;;;;;;;5054378;28;20051;-77
2021/05/26 14:41:39;;;;;;;4.35;0.70;;;;;;;;;;5035510;28;20057;-77
2021/05/26 14:44:04;;;;;;;4.63;0.90;;;;;;;;;;5035426;28;20376;-77
2021/05/26 14:46:30;;;;;;;3.17;0.77;;;;;;;;;;5034870;28;20032;-77
2021/05/26 14:48:57;;;;;;;2.20;0.75;;;;;;;;;;5034894;28;20029;-77
2021/05/26 14:51:25;;;;;;;1.52;0.82;;;;;;;;;;5034527;28;20038;-77
2021/05/26 14:53:50;;;;;;;1.92;1.35;;;;;;;;;;5035180;28;20037;-76
2021/05/26 14:56:16;;;;;;;0.57;0.57;;;;;;;;;;5035094;28;20487;-76